createdAt,value
2023-04-16T00:01:19.165Z,5.43
2023-04-16T00:03:46.754Z,5.82
2023-04-16T00:06:14.569Z,6.18
2023-04-16T00:08:43.270Z,6.34
2023-04-16T00:11:10.454Z,6.68
2023-04-16T00:13:37.774Z,6.67
2023-04-16T00:16:05.576Z,7.57
2023-04-16T00:18:32.748Z,7.56
2023-04-16T00:20:59.911Z,7.90
2023-04-16T00:23:27.285Z,7.64
2023-04-16T00:25:55.793Z,7.91
2023-04-16T00:28:23.024Z,7.88
2023-04-16T00:30:50.281Z,7.38
2023-04-16T00:33:17.648Z,7.65
2023-04-16T00:35:45.967Z,7.60
2023-04-16T00:38:14.196Z,7.60
2023-04-16T00:40:41.246Z,7.51
2023-04-16T00:43:10.023Z,7.10
2023-04-16T00:45:37.225Z,7.46
2023-04-16T00:48:05.448Z,6.84
2023-04-16T00:50:33.754Z,6.15
2023-04-16T00:53:02.340Z,5.49
2023-04-16T00:55:29.907Z,4.78
2023-04-16T00:57:56.968Z,4.29
2023-04-16T01:00:25.710Z,4.26
2023-04-16T01:02:53.998Z,3.99
2023-04-16T01:05:21.628Z,3.68
2023-04-16T01:07:48.801Z,3.57
2023-04-16T01:10:15.827Z,2.39
2023-04-16T01:12:43.039Z,1.81
2023-04-16T01:15:11.190Z,1.61
2023-04-16T01:17:39.868Z,1.50
2023-04-16T01:20:07.590Z,1.34
2023-04-16T01:22:36.110Z,1.54
2023-04-16T01:25:03.433Z,1.55
2023-04-16T01:27:30.596Z,1.50
2023-04-16T01:29:57.687Z,1.58
2023-04-16T01:32:24.949Z,1.45
2023-04-16T01:34:52.214Z,1.67
2023-04-16T01:37:19.351Z,1.98
2023-04-16T01:39:47.831Z,2.00
2023-04-16T01:42:14.852Z,1.89
2023-04-16T01:44:41.952Z,1.92
2023-04-16T01:47:09.081Z,2.84
2023-04-16T01:49:36.252Z,2.21
2023-04-16T01:52:03.412Z,1.72
2023-04-16T01:54:30.833Z,1.63
2023-04-16T01:56:59.312Z,1.53
2023-04-16T01:59:26.356Z,1.46
2023-04-16T02:01:53.943Z,1.42
2023-04-16T02:04:21.171Z,1.59
2023-04-16T02:06:48.279Z,1.63
2023-04-16T02:09:15.520Z,1.91
2023-04-16T02:11:42.558Z,1.82
2023-04-16T02:14:11.032Z,1.64
2023-04-16T02:16:38.147Z,1.62
2023-04-16T02:19:05.391Z,1.65
2023-04-16T02:21:32.506Z,1.57
2023-04-16T02:23:59.584Z,1.56
2023-04-16T02:26:26.615Z,1.50
2023-04-16T02:28:53.690Z,1.51
2023-04-16T02:31:22.271Z,1.69
2023-04-16T02:33:49.485Z,1.60
2023-04-16T02:36:16.624Z,1.65
2023-04-16T02:38:43.686Z,1.57
2023-04-16T02:41:10.768Z,1.81
2023-04-16T02:43:38.128Z,1.73
2023-04-16T02:46:05.324Z,1.67
2023-04-16T02:48:33.931Z,1.64
2023-04-16T02:51:01.146Z,1.88
2023-04-16T02:53:28.285Z,1.88
2023-04-16T02:55:56.579Z,1.73
2023-04-16T02:58:25.422Z,1.86
2023-04-16T03:00:54.059Z,1.66
2023-04-16T03:03:21.818Z,1.46
2023-04-16T03:05:50.610Z,1.54
2023-04-16T03:08:17.785Z,1.66
2023-04-16T03:10:44.830Z,2.07
2023-04-16T03:13:11.990Z,2.15
2023-04-16T03:15:39.181Z,1.77
2023-04-16T03:18:06.237Z,1.84
2023-04-16T03:20:33.791Z,1.96
2023-04-16T03:23:02.503Z,1.69
2023-04-16T03:25:29.597Z,1.67
2023-04-16T03:27:56.842Z,1.64
2023-04-16T03:30:23.992Z,1.73
2023-04-16T03:32:51.101Z,1.77
2023-04-16T03:35:18.409Z,1.61
2023-04-16T03:37:45.471Z,1.46
2023-04-16T03:40:14.627Z,1.57
2023-04-16T03:42:41.715Z,1.48
2023-04-16T03:45:09.668Z,1.41
2023-04-16T03:47:36.897Z,1.44
2023-04-16T03:50:04.519Z,1.24
2023-04-16T03:52:31.910Z,1.40
2023-04-16T03:54:58.996Z,1.44
2023-04-16T03:57:27.524Z,1.34
2023-04-16T03:59:54.650Z,1.35
2023-04-16T04:02:21.860Z,1.48
2023-04-16T04:04:49.210Z,1.31
2023-04-16T04:07:16.631Z,1.32
2023-04-16T04:09:43.690Z,1.34
2023-04-16T04:12:10.770Z,1.58
2023-04-16T04:14:39.434Z,1.87
2023-04-16T04:17:06.760Z,2.00
2023-04-16T04:19:33.919Z,2.22
2023-04-16T04:22:01.031Z,2.39
2023-04-16T04:24:28.230Z,2.39
2023-04-16T04:26:55.436Z,2.54
2023-04-16T04:29:22.594Z,2.45
2023-04-16T04:31:51.445Z,2.67
2023-04-16T04:34:19.086Z,2.37
2023-04-16T04:36:46.162Z,2.49
2023-04-16T04:39:13.509Z,2.40
2023-04-16T04:41:40.615Z,2.56
2023-04-16T04:44:07.928Z,2.30
2023-04-16T04:46:35.119Z,2.63
2023-04-16T04:49:03.827Z,2.77
2023-04-16T04:51:30.977Z,2.73
2023-04-16T04:53:58.430Z,2.80
2023-04-16T04:56:25.468Z,2.43
2023-04-16T04:58:52.854Z,2.65
2023-04-16T05:01:20.123Z,2.30
2023-04-16T05:03:47.426Z,2.35
2023-04-16T05:06:16.749Z,2.50
2023-04-16T05:08:43.889Z,2.25
2023-04-16T05:11:10.984Z,2.16
2023-04-16T05:13:38.129Z,2.37
2023-04-16T05:16:06.206Z,2.32
2023-04-16T05:18:33.353Z,2.40
2023-04-16T05:21:00.752Z,2.30
2023-04-16T05:23:29.256Z,2.28
2023-04-16T05:25:56.376Z,2.51
2023-04-16T05:28:23.531Z,2.60
2023-04-16T05:30:51.263Z,2.76
2023-04-16T05:33:18.390Z,2.48
2023-04-16T05:35:45.479Z,2.41
2023-04-16T05:38:12.673Z,2.71
2023-04-16T05:40:41.329Z,2.62
2023-04-16T05:43:08.413Z,2.67
2023-04-16T05:45:35.446Z,2.65
2023-04-16T05:48:02.522Z,2.87
2023-04-16T05:50:29.632Z,2.76
2023-04-16T05:52:56.733Z,2.76
2023-04-16T05:55:24.006Z,2.66
2023-04-16T05:57:52.510Z,2.77
2023-04-16T06:00:19.766Z,2.67
2023-04-16T06:02:47.028Z,2.79
2023-04-16T06:05:14.529Z,2.66
2023-04-16T06:07:41.728Z,2.57
2023-04-16T06:10:09.806Z,2.37
2023-04-16T06:12:36.908Z,2.39
2023-04-16T06:15:07.239Z,2.32
2023-04-16T06:17:34.373Z,2.23
2023-04-16T06:20:01.531Z,2.33
2023-04-16T06:22:29.585Z,2.22
2023-04-16T06:24:56.738Z,2.40
2023-04-16T06:27:23.929Z,2.21
2023-04-16T06:29:51.007Z,2.39
2023-04-16T06:32:19.862Z,2.25
2023-04-16T06:34:47.090Z,2.17
2023-04-16T06:37:14.128Z,2.14
2023-04-16T06:39:41.231Z,2.03
2023-04-16T06:42:08.480Z,1.83
2023-04-16T06:44:35.877Z,1.94
2023-04-16T06:47:03.152Z,2.09
2023-04-16T06:49:31.685Z,1.82
2023-04-16T06:51:58.952Z,1.87
2023-04-16T06:54:26.189Z,1.88
2023-04-16T06:56:53.307Z,2.03
2023-04-16T06:59:20.306Z,2.00
2023-04-16T07:01:47.594Z,2.08
2023-04-16T07:04:14.963Z,2.76
2023-04-16T07:06:43.627Z,2.57
2023-04-16T07:09:11.147Z,2.71
2023-04-16T07:11:38.597Z,3.05
2023-04-16T07:14:05.848Z,3.07
2023-04-16T07:16:33.028Z,2.23
2023-04-16T07:19:00.384Z,2.42
2023-04-16T07:21:27.548Z,2.56
2023-04-16T07:23:56.169Z,3.46
2023-04-16T07:26:23.251Z,4.01
2023-04-16T07:28:50.390Z,4.15
2023-04-16T07:31:17.698Z,3.95
2023-04-16T07:33:46.291Z,4.37
2023-04-16T07:36:13.385Z,4.64
2023-04-16T07:38:40.452Z,4.49
2023-04-16T07:41:09.289Z,4.28
2023-04-16T07:43:37.071Z,4.56
2023-04-16T07:46:04.462Z,4.80
2023-04-16T07:48:31.609Z,4.52
2023-04-16T07:50:58.922Z,4.29
2023-04-16T07:53:26.049Z,4.69
2023-04-16T07:55:53.128Z,4.90
2023-04-16T07:58:21.830Z,4.88
2023-04-16T08:00:50.881Z,4.54
2023-04-16T08:03:18.645Z,5.08
2023-04-16T08:05:45.909Z,4.69
2023-04-16T08:08:13.194Z,5.04
2023-04-16T08:10:40.326Z,5.04
2023-04-16T08:13:07.374Z,4.98
2023-04-16T08:15:35.970Z,4.74
2023-04-16T08:18:03.398Z,4.84
2023-04-16T08:20:30.729Z,5.10
2023-04-16T08:22:57.808Z,4.99
2023-04-16T08:25:24.926Z,5.15
2023-04-16T08:27:52.050Z,5.34
2023-04-16T08:30:19.353Z,4.88
2023-04-16T08:32:50.051Z,4.79
2023-04-16T08:35:17.581Z,4.88
2023-04-16T08:37:44.792Z,4.91
2023-04-16T08:40:12.586Z,4.50
2023-04-16T08:42:44.974Z,5.01
2023-04-16T08:45:16.851Z,4.88
2023-04-16T08:47:49.104Z,4.59
2023-04-16T08:50:17.733Z,5.05
2023-04-16T08:52:51.228Z,4.63
2023-04-16T08:55:22.239Z,4.60
2023-04-16T08:57:55.049Z,4.52
2023-04-16T09:00:22.948Z,5.00
2023-04-16T09:02:52.478Z,4.43
2023-04-16T09:05:20.621Z,4.43
2023-04-16T09:07:48.810Z,4.43
2023-04-16T09:10:16.041Z,4.37
2023-04-16T09:12:43.989Z,4.54
2023-04-16T09:15:13.258Z,4.23
2023-04-16T09:17:40.794Z,4.24
2023-04-16T09:20:10.567Z,4.33
2023-04-16T09:22:38.481Z,3.49
2023-04-16T09:25:07.331Z,3.96
2023-04-16T09:27:34.737Z,3.92
2023-04-16T09:30:01.871Z,3.76
2023-04-16T09:32:29.411Z,3.78
2023-04-16T09:34:58.815Z,3.48
2023-04-16T09:37:29.289Z,3.63
2023-04-16T09:39:58.552Z,4.06
2023-04-16T09:42:28.285Z,4.14
2023-04-16T09:44:59.389Z,4.15
2023-04-16T09:47:39.965Z,4.52
2023-04-16T09:50:08.429Z,4.89
2023-04-16T09:52:38.031Z,4.00
2023-04-16T09:55:06.216Z,4.15
2023-04-16T09:57:33.421Z,4.09
2023-04-16T10:00:04.192Z,4.59
2023-04-16T10:02:31.710Z,4.14
2023-04-16T10:05:01.888Z,4.20
2023-04-16T10:07:33.330Z,4.26
2023-04-16T10:10:03.813Z,3.97
2023-04-16T10:12:31.274Z,4.52
2023-04-16T10:14:58.541Z,4.35
2023-04-16T10:17:26.979Z,4.49
2023-04-16T10:19:55.471Z,4.31
2023-04-16T10:22:22.806Z,5.06
2023-04-16T10:24:51.135Z,4.81
2023-04-16T10:27:20.661Z,4.58
2023-04-16T10:29:50.043Z,4.54
2023-04-16T10:32:19.447Z,4.23
2023-04-16T10:34:48.552Z,4.31
2023-04-16T10:37:16.692Z,3.81
2023-04-16T10:39:43.862Z,4.01
2023-04-16T10:42:12.310Z,4.51
2023-04-16T10:44:45.238Z,4.28
2023-04-16T10:47:14.424Z,4.44
2023-04-16T10:49:42.361Z,4.72
2023-04-16T10:52:12.269Z,5.70
2023-04-16T10:54:40.721Z,6.09
2023-04-16T10:57:10.712Z,5.95
2023-04-16T10:59:38.566Z,6.08
2023-04-16T11:02:13.079Z,6.13
2023-04-16T11:04:43.973Z,6.41
2023-04-16T11:07:19.862Z,6.52
2023-04-16T11:09:52.835Z,6.12
2023-04-16T11:12:21.491Z,6.19
2023-04-16T11:14:51.109Z,6.31
2023-04-16T11:17:20.682Z,6.53
2023-04-16T11:19:47.975Z,6.08
2023-04-16T11:22:17.685Z,6.77
2023-04-16T11:24:46.360Z,6.64
2023-04-16T11:27:15.247Z,5.85
2023-04-16T11:29:42.863Z,6.39
2023-04-16T11:32:10.807Z,6.80
2023-04-16T11:34:47.384Z,6.26
2023-04-16T11:37:14.648Z,6.71
2023-04-16T11:39:51.544Z,6.99
2023-04-16T11:42:23.023Z,6.32
2023-04-16T11:44:54.536Z,6.26
2023-04-16T11:47:22.616Z,6.10
2023-04-16T11:49:51.908Z,6.21
2023-04-16T11:52:30.307Z,6.19
2023-04-16T11:54:58.550Z,6.37
2023-04-16T11:57:27.289Z,6.44
2023-04-16T12:00:02.098Z,6.73
2023-04-16T12:02:38.429Z,6.58
2023-04-16T12:05:25.769Z,6.56
2023-04-16T12:07:53.149Z,6.46
2023-04-16T12:10:20.374Z,6.78
2023-04-16T12:12:47.491Z,5.56
2023-04-16T12:15:15.089Z,5.77
2023-04-16T12:17:42.294Z,6.08
2023-04-16T12:20:13.724Z,5.71
2023-04-16T12:22:45.842Z,8.41
2023-04-16T12:25:15.165Z,7.57
2023-04-16T12:27:44.510Z,5.73
2023-04-16T12:30:12.829Z,5.83
2023-04-16T12:32:41.088Z,5.60
2023-04-16T12:35:10.757Z,5.69
2023-04-16T12:37:38.666Z,6.27
2023-04-16T12:40:07.145Z,6.05
2023-04-16T12:42:34.709Z,5.54
2023-04-16T12:45:02.669Z,5.85
2023-04-16T12:47:29.910Z,5.80
2023-04-16T12:49:57.295Z,6.20
2023-04-16T12:52:26.529Z,6.51
2023-04-16T12:54:53.896Z,6.27
2023-04-16T12:57:21.258Z,6.16
2023-04-16T12:59:48.310Z,6.17
2023-04-16T13:02:15.491Z,6.26
2023-04-16T13:04:42.783Z,5.84
2023-04-16T13:07:10.095Z,5.46
2023-04-16T13:09:40.000Z,5.47
2023-04-16T13:12:07.867Z,5.38
2023-04-16T13:14:35.154Z,5.66
2023-04-16T13:17:02.253Z,5.74
2023-04-16T13:19:29.419Z,5.59
2023-04-16T13:21:56.913Z,5.28
2023-04-16T13:24:24.771Z,5.39
2023-04-16T13:26:53.392Z,5.13
2023-04-16T13:29:20.875Z,5.03
2023-04-16T13:31:48.869Z,5.79
2023-04-16T13:34:16.154Z,6.23
2023-04-16T13:36:43.327Z,6.17
2023-04-16T13:39:10.562Z,6.20
2023-04-16T13:41:38.209Z,5.68
2023-04-16T13:44:06.728Z,5.86
2023-04-16T13:46:34.198Z,6.06
2023-04-16T13:49:01.670Z,5.86
2023-04-16T13:51:29.031Z,6.32
2023-04-16T13:53:56.208Z,5.71
2023-04-16T13:56:23.582Z,5.87
2023-04-16T13:58:50.848Z,5.73
2023-04-16T14:01:19.669Z,6.06
2023-04-16T14:03:46.909Z,5.76
2023-04-16T14:06:14.172Z,6.33
2023-04-16T14:08:41.352Z,6.30
2023-04-16T14:11:08.687Z,5.91
2023-04-16T14:13:35.924Z,6.45
2023-04-16T14:16:03.694Z,6.09
2023-04-16T14:18:32.412Z,6.09
2023-04-16T14:20:59.548Z,6.11
2023-04-16T14:23:26.771Z,5.88
2023-04-16T14:25:53.886Z,5.75
2023-04-16T14:28:21.130Z,5.83
2023-04-16T14:30:48.508Z,5.58
2023-04-16T14:33:15.788Z,4.23
2023-04-16T14:35:44.427Z,5.76
2023-04-16T14:38:11.976Z,5.28
2023-04-16T14:40:39.208Z,5.38
2023-04-16T14:43:06.287Z,5.72
2023-04-16T14:45:33.553Z,6.15
2023-04-16T14:48:00.793Z,6.46
2023-04-16T14:50:28.148Z,6.14
2023-04-16T14:52:56.728Z,6.71
2023-04-16T14:55:24.223Z,6.61
2023-04-16T14:57:51.635Z,6.40
2023-04-16T15:00:19.192Z,6.45
2023-04-16T15:02:46.639Z,6.61
2023-04-16T15:05:13.915Z,6.25
2023-04-16T15:07:41.047Z,5.96
2023-04-16T15:10:10.199Z,5.82
2023-04-16T15:12:37.957Z,6.21
2023-04-16T15:15:06.304Z,6.40
2023-04-16T15:17:33.895Z,5.99
2023-04-16T15:20:01.038Z,5.62
2023-04-16T15:22:28.311Z,5.92
2023-04-16T15:24:55.436Z,6.16
2023-04-16T15:27:24.012Z,6.15
2023-04-16T15:29:51.395Z,5.75
2023-04-16T15:32:18.675Z,5.81
2023-04-16T15:34:45.851Z,5.83
2023-04-16T15:37:13.067Z,5.98
2023-04-16T15:39:40.250Z,5.69
2023-04-16T15:42:08.247Z,5.79
2023-04-16T15:44:37.031Z,6.12
2023-04-16T15:47:04.710Z,6.10
2023-04-16T15:49:31.850Z,6.17
2023-04-16T15:51:59.156Z,6.44
2023-04-16T15:54:26.343Z,6.53
2023-04-16T15:56:53.595Z,6.27
2023-04-16T15:59:20.765Z,6.09
2023-04-16T16:01:49.371Z,5.97
2023-04-16T16:04:16.721Z,6.20
2023-04-16T16:06:43.952Z,6.17
2023-04-16T16:09:11.780Z,6.08
2023-04-16T16:11:39.212Z,6.16
2023-04-16T16:14:06.375Z,6.12
2023-04-16T16:16:33.674Z,6.01
2023-04-16T16:19:02.319Z,5.95
2023-04-16T16:21:30.337Z,6.14
2023-04-16T16:23:57.594Z,6.16
2023-04-16T16:26:24.809Z,5.92
2023-04-16T16:28:52.076Z,5.67
2023-04-16T16:31:19.196Z,6.09
2023-04-16T16:33:46.421Z,6.09
2023-04-16T16:36:15.514Z,5.80
2023-04-16T16:38:42.793Z,5.98
2023-04-16T16:41:10.127Z,5.88
2023-04-16T16:43:37.481Z,5.73
2023-04-16T16:46:06.039Z,6.13
2023-04-16T16:48:33.351Z,5.76
2023-04-16T16:51:00.552Z,6.30
2023-04-16T16:53:29.193Z,6.08
2023-04-16T16:55:56.471Z,6.32
2023-04-16T16:58:23.549Z,6.26
2023-04-16T17:00:50.848Z,6.17
2023-04-16T17:03:18.104Z,6.22
2023-04-16T17:05:45.431Z,5.77
2023-04-16T17:08:12.711Z,5.56
2023-04-16T17:10:41.328Z,4.84
2023-04-16T17:13:08.396Z,5.06
2023-04-16T17:15:35.599Z,5.12
2023-04-16T17:18:02.720Z,5.30
2023-04-16T17:20:29.855Z,5.33
2023-04-16T17:22:57.011Z,5.30
2023-04-16T17:25:24.056Z,5.35
2023-04-16T17:27:52.601Z,5.35
2023-04-16T17:30:20.116Z,5.27
2023-04-16T17:32:47.245Z,5.21
2023-04-16T17:35:14.435Z,5.06
2023-04-16T17:37:41.554Z,5.04
2023-04-16T17:40:09.858Z,5.22
2023-04-16T17:42:37.524Z,5.26
2023-04-16T17:45:07.199Z,5.07
2023-04-16T17:47:36.736Z,5.22
2023-04-16T17:50:05.586Z,5.47
2023-04-16T17:52:32.959Z,5.63
2023-04-16T17:55:00.534Z,5.66
2023-04-16T17:57:28.078Z,5.52
2023-04-16T17:59:55.708Z,5.59
2023-04-16T18:02:24.581Z,5.26
2023-04-16T18:04:52.107Z,5.46
2023-04-16T18:07:19.781Z,5.37
2023-04-16T18:09:47.170Z,4.85
2023-04-16T18:12:14.570Z,5.04
2023-04-16T18:14:41.749Z,3.99
2023-04-16T18:17:09.633Z,4.01
2023-04-16T18:19:38.657Z,4.22
2023-04-16T18:22:06.492Z,3.70
2023-04-16T18:24:33.969Z,3.90
2023-04-16T18:27:01.693Z,4.38
2023-04-16T18:29:29.379Z,4.55
2023-04-16T18:31:56.631Z,5.19
2023-04-16T18:34:24.182Z,5.34
2023-04-16T18:36:52.808Z,5.36
2023-04-16T18:39:20.409Z,5.91
2023-04-16T18:41:49.365Z,5.85
2023-04-16T18:44:16.727Z,5.82
2023-04-16T18:46:43.881Z,5.55
2023-04-16T18:49:11.417Z,6.34
2023-04-16T18:51:39.649Z,6.11
2023-04-16T18:54:08.379Z,6.40
2023-04-16T18:56:35.694Z,6.56
2023-04-16T18:59:03.845Z,6.21
2023-04-16T19:01:31.118Z,6.22
2023-04-16T19:03:58.444Z,6.44
2023-04-16T19:06:29.169Z,5.98
2023-04-16T19:08:56.408Z,5.71
2023-04-16T19:11:25.597Z,6.40
2023-04-16T19:13:53.194Z,6.62
2023-04-16T19:16:20.426Z,6.49
2023-04-16T19:18:52.392Z,6.20
2023-04-16T19:21:19.872Z,6.76
2023-04-16T19:23:47.128Z,6.48
2023-04-16T19:26:14.383Z,6.80
2023-04-16T19:28:43.166Z,6.74
2023-04-16T19:31:10.592Z,6.74
2023-04-16T19:33:38.240Z,6.81
2023-04-16T19:36:05.688Z,6.66
2023-04-16T19:38:32.916Z,6.70
2023-04-16T19:41:00.213Z,6.57
2023-04-16T19:43:30.387Z,6.62
2023-04-16T19:45:59.643Z,6.54
2023-04-16T19:48:27.062Z,6.54
2023-04-16T19:50:54.288Z,6.64
2023-04-16T19:53:21.432Z,6.26
2023-04-16T19:55:48.647Z,6.11
2023-04-16T19:58:15.947Z,5.97
2023-04-16T20:00:43.540Z,5.73
2023-04-16T20:03:12.539Z,5.94
2023-04-16T20:05:39.814Z,5.61
2023-04-16T20:08:07.109Z,5.65
2023-04-16T20:10:34.227Z,5.42
2023-04-16T20:13:01.835Z,5.42
2023-04-16T20:15:29.249Z,5.76
2023-04-16T20:17:56.511Z,5.32
2023-04-16T20:20:25.165Z,5.52
2023-04-16T20:22:52.304Z,5.81
2023-04-16T20:25:19.834Z,6.09
2023-04-16T20:27:47.203Z,6.16
2023-04-16T20:30:14.678Z,6.03
2023-04-16T20:32:41.845Z,5.99
2023-04-16T20:35:10.299Z,6.09
2023-04-16T20:37:39.799Z,5.77
2023-04-16T20:40:08.652Z,5.99
2023-04-16T20:42:36.089Z,5.73
2023-04-16T20:45:03.501Z,5.61
2023-04-16T20:47:30.628Z,5.90
2023-04-16T20:49:57.844Z,6.04
2023-04-16T20:52:25.042Z,5.66
2023-04-16T20:54:53.807Z,5.79
2023-04-16T20:57:20.921Z,5.99
2023-04-16T20:59:48.087Z,5.76
2023-04-16T21:02:15.482Z,5.18
2023-04-16T21:04:43.070Z,4.83
2023-04-16T21:07:10.207Z,4.56
2023-04-16T21:09:37.354Z,4.70
2023-04-16T21:12:06.595Z,4.51
2023-04-16T21:14:33.807Z,4.44
2023-04-16T21:17:00.849Z,4.41
2023-04-16T21:19:27.982Z,4.21
2023-04-16T21:21:55.130Z,2.33
2023-04-16T21:24:22.346Z,2.77
2023-04-16T21:26:49.504Z,2.87
2023-04-16T21:29:17.995Z,2.71
2023-04-16T21:31:45.215Z,3.00
2023-04-16T21:34:12.446Z,2.92
2023-04-16T21:36:39.631Z,3.02
2023-04-16T21:39:06.686Z,3.01
2023-04-16T21:41:33.908Z,2.99
2023-04-16T21:44:01.013Z,3.16
2023-04-16T21:46:29.737Z,3.08
2023-04-16T21:48:56.945Z,3.14
2023-04-16T21:51:24.073Z,3.13
2023-04-16T21:53:51.367Z,3.07
2023-04-16T21:56:18.528Z,2.83
2023-04-16T21:58:45.571Z,2.89
2023-04-16T22:01:12.770Z,2.94
2023-04-16T22:03:41.781Z,3.11
2023-04-16T22:06:08.966Z,3.09
2023-04-16T22:08:36.110Z,3.36
2023-04-16T22:11:03.671Z,3.53
2023-04-16T22:13:31.163Z,3.35
2023-04-16T22:15:59.532Z,3.53
2023-04-16T22:18:26.949Z,3.66
2023-04-16T22:20:56.206Z,3.54
2023-04-16T22:23:23.945Z,3.84
2023-04-16T22:25:55.236Z,3.69
2023-04-16T22:28:22.687Z,3.87
2023-04-16T22:30:50.384Z,3.87
2023-04-16T22:33:17.617Z,3.97
2023-04-16T22:35:44.817Z,4.03
2023-04-16T22:38:13.542Z,4.35
2023-04-16T22:40:40.731Z,4.28
2023-04-16T22:43:07.856Z,4.61
2023-04-16T22:45:35.206Z,4.52
2023-04-16T22:48:02.358Z,4.61
2023-04-16T22:50:29.603Z,4.75
2023-04-16T22:52:56.805Z,4.77
2023-04-16T22:55:25.545Z,5.03
2023-04-16T22:57:52.721Z,4.94
2023-04-16T23:00:19.986Z,4.91
2023-04-16T23:02:47.190Z,4.80
2023-04-16T23:05:14.265Z,4.38
2023-04-16T23:07:41.668Z,4.91
2023-04-16T23:10:09.287Z,4.92
2023-04-16T23:12:37.861Z,4.96
2023-04-16T23:15:06.230Z,4.98
2023-04-16T23:17:33.525Z,5.10
2023-04-16T23:20:00.728Z,5.34
2023-04-16T23:22:28.026Z,4.90
2023-04-16T23:24:55.253Z,5.06
2023-04-16T23:27:22.548Z,4.99
2023-04-16T23:29:51.151Z,4.63
2023-04-16T23:32:18.332Z,4.85
2023-04-16T23:34:45.594Z,4.69
2023-04-16T23:37:12.746Z,4.31
2023-04-16T23:39:39.919Z,4.35
2023-04-16T23:42:07.113Z,4.55
2023-04-16T23:44:34.279Z,4.40
2023-04-16T23:47:02.955Z,4.56
2023-04-16T23:49:30.422Z,4.98
2023-04-16T23:51:57.664Z,5.06
2023-04-16T23:54:24.787Z,5.28
2023-04-16T23:56:51.826Z,6.80
2023-04-16T23:59:19.358Z,6.85
